sensor_id;sensor_type;location;lat;lon;timestamp;pressure;altitude;pressure_sealevel;temperature;humidity
7670;BME280;3877;42.562;27.636;2022-07-18T00:01:23;102110.59;;;24.95;100.00
7670;BME280;3877;42.562;27.636;2022-07-18T00:03:51;102104.84;;;24.95;100.00
7670;BME280;3877;42.562;27.636;2022-07-18T00:06:18;102102.31;;;24.90;100.00
7670;BME280;3877;42.562;27.636;2022-07-18T00:08:45;102109.84;;;25.01;100.00
7670;BME280;3877;42.562;27.636;2022-07-18T00:11:12;102107.78;;;25.02;100.00
7670;BME280;3877;42.562;27.636;2022-07-18T00:13:40;102107.00;;;25.05;100.00
7670;BME280;3877;42.562;27.636;2022-07-18T00:16:08;102106.94;;;24.98;100.00
7670;BME280;3877;42.562;27.636;2022-07-18T00:18:36;102102.31;;;24.90;100.00
7670;BME280;3877;42.562;27.636;2022-07-18T00:21:03;102110.13;;;24.93;100.00
7670;BME280;3877;42.562;27.636;2022-07-18T00:23:31;102103.19;;;24.94;100.00
7670;BME280;3877;42.562;27.636;2022-07-18T00:25:58;102099.75;;;24.84;100.00
7670;BME280;3877;42.562;27.636;2022-07-18T00:28:25;102101.63;;;24.73;100.00
7670;BME280;3877;42.562;27.636;2022-07-18T00:30:53;102105.28;;;24.70;100.00
7670;BME280;3877;42.562;27.636;2022-07-18T00:33:22;102104.88;;;24.72;100.00
7670;BME280;3877;42.562;27.636;2022-07-18T00:35:49;102094.50;;;24.60;100.00
7670;BME280;3877;42.562;27.636;2022-07-18T00:38:16;102115.97;;;24.73;100.00
7670;BME280;3877;42.562;27.636;2022-07-18T00:40:44;102116.47;;;24.79;100.00
7670;BME280;3877;42.562;27.636;2022-07-18T00:43:12;102108.63;;;24.76;100.00
7670;BME280;3877;42.562;27.636;2022-07-18T00:45:44;102123.75;;;24.73;100.00
7670;BME280;3877;42.562;27.636;2022-07-18T00:48:11;102121.16;;;24.64;100.00
7670;BME280;3877;42.562;27.636;2022-07-18T00:50:41;102124.91;;;24.68;100.00
7670;BME280;3877;42.562;27.636;2022-07-18T00:53:08;102122.69;;;24.58;100.00
7670;BME280;3877;42.562;27.636;2022-07-18T00:55:37;102127.88;;;24.49;100.00
7670;BME280;3877;42.562;27.636;2022-07-18T00:58:04;102125.56;;;24.58;100.00
7670;BME280;3877;42.562;27.636;2022-07-18T01:00:32;102123.91;;;24.57;100.00
7670;BME280;3877;42.562;27.636;2022-07-18T01:03:16;102121.50;;;24.59;100.00
7670;BME280;3877;42.562;27.636;2022-07-18T01:05:45;102124.34;;;24.59;100.00
7670;BME280;3877;42.562;27.636;2022-07-18T01:08:13;102130.69;;;24.46;100.00
7670;BME280;3877;42.562;27.636;2022-07-18T01:10:40;102130.97;;;24.37;100.00
7670;BME280;3877;42.562;27.636;2022-07-18T01:13:07;102134.91;;;24.29;100.00
7670;BME280;3877;42.562;27.636;2022-07-18T01:15:35;102086.03;;;23.95;100.00
7670;BME280;3877;42.562;27.636;2022-07-18T01:18:03;102123.34;;;24.22;100.00
7670;BME280;3877;42.562;27.636;2022-07-18T01:20:32;102135.03;;;24.36;100.00
7670;BME280;3877;42.562;27.636;2022-07-18T01:22:59;102140.00;;;24.39;100.00
7670;BME280;3877;42.562;27.636;2022-07-18T01:25:27;102122.38;;;24.37;100.00
7670;BME280;3877;42.562;27.636;2022-07-18T01:27:54;102126.13;;;24.41;100.00
7670;BME280;3877;42.562;27.636;2022-07-18T01:30:22;102138.00;;;24.43;100.00
7670;BME280;3877;42.562;27.636;2022-07-18T01:32:55;102136.06;;;24.47;100.00
7670;BME280;3877;42.562;27.636;2022-07-18T01:35:23;102138.50;;;24.49;100.00
7670;BME280;3877;42.562;27.636;2022-07-18T01:37:53;102131.84;;;24.41;100.00
7670;BME280;3877;42.562;27.636;2022-07-18T01:40:21;102145.84;;;24.46;100.00
7670;BME280;3877;42.562;27.636;2022-07-18T01:42:49;102140.63;;;24.52;100.00
7670;BME280;3877;42.562;27.636;2022-07-18T01:45:17;102142.72;;;24.55;100.00
7670;BME280;3877;42.562;27.636;2022-07-18T01:47:44;102148.81;;;24.53;100.00
7670;BME280;3877;42.562;27.636;2022-07-18T01:50:12;102147.50;;;24.47;100.00
7670;BME280;3877;42.562;27.636;2022-07-18T01:52:40;102158.13;;;24.47;100.00
7670;BME280;3877;42.562;27.636;2022-07-18T01:55:09;102151.44;;;24.39;100.00
7670;BME280;3877;42.562;27.636;2022-07-18T01:57:37;102157.63;;;24.41;100.00
7670;BME280;3877;42.562;27.636;2022-07-18T02:00:08;102140.53;;;24.22;100.00
7670;BME280;3877;42.562;27.636;2022-07-18T02:02:35;102161.00;;;24.24;100.00
7670;BME280;3877;42.562;27.636;2022-07-18T02:05:03;102175.44;;;24.08;100.00
7670;BME280;3877;42.562;27.636;2022-07-18T02:07:34;102158.94;;;24.02;100.00
7670;BME280;3877;42.562;27.636;2022-07-18T02:10:05;102182.88;;;24.13;100.00
7670;BME280;3877;42.562;27.636;2022-07-18T02:12:35;102192.25;;;23.90;100.00
7670;BME280;3877;42.562;27.636;2022-07-18T02:15:03;102197.09;;;23.86;100.00
7670;BME280;3877;42.562;27.636;2022-07-18T02:17:31;102197.19;;;23.90;100.00
7670;BME280;3877;42.562;27.636;2022-07-18T02:19:59;102198.75;;;23.87;100.00
7670;BME280;3877;42.562;27.636;2022-07-18T02:22:26;102188.50;;;23.86;100.00
7670;BME280;3877;42.562;27.636;2022-07-18T02:24:53;102194.72;;;23.69;100.00
7670;BME280;3877;42.562;27.636;2022-07-18T02:27:21;102188.53;;;23.67;100.00
7670;BME280;3877;42.562;27.636;2022-07-18T02:29:50;102192.63;;;23.66;100.00
7670;BME280;3877;42.562;27.636;2022-07-18T02:32:18;102176.34;;;23.70;100.00
7670;BME280;3877;42.562;27.636;2022-07-18T02:34:45;102189.59;;;23.78;100.00
7670;BME280;3877;42.562;27.636;2022-07-18T02:37:12;102188.09;;;23.65;100.00
7670;BME280;3877;42.562;27.636;2022-07-18T02:39:40;102189.44;;;23.71;100.00
7670;BME280;3877;42.562;27.636;2022-07-18T02:42:07;102193.97;;;23.72;100.00
7670;BME280;3877;42.562;27.636;2022-07-18T02:44:35;102197.72;;;23.76;100.00
7670;BME280;3877;42.562;27.636;2022-07-18T02:47:03;102179.53;;;23.65;100.00
7670;BME280;3877;42.562;27.636;2022-07-18T02:49:31;102196.81;;;23.72;100.00
7670;BME280;3877;42.562;27.636;2022-07-18T02:51:59;102198.84;;;23.72;100.00
7670;BME280;3877;42.562;27.636;2022-07-18T02:54:29;102187.81;;;23.70;100.00
7670;BME280;3877;42.562;27.636;2022-07-18T02:56:56;102203.44;;;23.76;100.00
7670;BME280;3877;42.562;27.636;2022-07-18T02:59:25;102202.69;;;23.79;100.00
7670;BME280;3877;42.562;27.636;2022-07-18T03:01:52;102196.81;;;23.72;100.00
7670;BME280;3877;42.562;27.636;2022-07-18T03:04:22;102194.53;;;23.81;100.00
7670;BME280;3877;42.562;27.636;2022-07-18T03:06:49;102203.53;;;23.80;100.00
7670;BME280;3877;42.562;27.636;2022-07-18T03:09:17;102209.31;;;23.83;100.00
7670;BME280;3877;42.562;27.636;2022-07-18T03:11:45;102226.34;;;23.76;100.00
7670;BME280;3877;42.562;27.636;2022-07-18T03:14:13;102219.88;;;23.79;100.00
7670;BME280;3877;42.562;27.636;2022-07-18T03:16:40;102211.59;;;23.74;100.00
7670;BME280;3877;42.562;27.636;2022-07-18T03:19:07;102206.69;;;23.75;100.00
7670;BME280;3877;42.562;27.636;2022-07-18T03:21:36;102212.13;;;23.80;100.00
7670;BME280;3877;42.562;27.636;2022-07-18T03:24:03;102203.59;;;23.83;100.00
7670;BME280;3877;42.562;27.636;2022-07-18T03:26:31;102195.31;;;23.78;100.00
7670;BME280;3877;42.562;27.636;2022-07-18T03:28:58;102201.19;;;23.85;100.00
7670;BME280;3877;42.562;27.636;2022-07-18T03:31:25;102224.81;;;23.82;100.00
7670;BME280;3877;42.562;27.636;2022-07-18T03:33:52;102210.97;;;23.84;100.00
7670;BME280;3877;42.562;27.636;2022-07-18T03:36:19;102213.06;;;23.87;100.00
7670;BME280;3877;42.562;27.636;2022-07-18T03:38:48;102211.81;;;23.85;100.00
7670;BME280;3877;42.562;27.636;2022-07-18T03:41:15;102220.41;;;23.85;100.00
7670;BME280;3877;42.562;27.636;2022-07-18T03:43:43;102203.28;;;23.88;100.00
7670;BME280;3877;42.562;27.636;2022-07-18T03:46:10;102210.38;;;23.94;100.00
7670;BME280;3877;42.562;27.636;2022-07-18T03:48:37;102208.69;;;23.93;100.00
7670;BME280;3877;42.562;27.636;2022-07-18T03:51:04;102208.69;;;23.93;100.00
7670;BME280;3877;42.562;27.636;2022-07-18T03:53:32;102203.88;;;23.97;100.00
7670;BME280;3877;42.562;27.636;2022-07-18T03:56:01;102216.16;;;23.98;100.00
7670;BME280;3877;42.562;27.636;2022-07-18T03:58:28;102212.09;;;23.99;100.00
7670;BME280;3877;42.562;27.636;2022-07-18T04:00:55;102209.72;;;24.05;100.00
7670;BME280;3877;42.562;27.636;2022-07-18T04:03:23;102238.50;;;24.12;100.00
7670;BME280;3877;42.562;27.636;2022-07-18T04:05:50;102211.38;;;24.06;100.00
7670;BME280;3877;42.562;27.636;2022-07-18T04:08:18;102206.47;;;24.06;100.00
7670;BME280;3877;42.562;27.636;2022-07-18T04:10:45;102214.16;;;24.21;100.00
7670;BME280;3877;42.562;27.636;2022-07-18T04:13:14;102230.56;;;24.24;100.00
7670;BME280;3877;42.562;27.636;2022-07-18T04:15:42;102214.69;;;24.27;100.00
7670;BME280;3877;42.562;27.636;2022-07-18T04:18:09;102220.72;;;24.22;100.00
7670;BME280;3877;42.562;27.636;2022-07-18T04:20:37;102213.91;;;24.30;100.00
7670;BME280;3877;42.562;27.636;2022-07-18T04:23:06;102216.91;;;24.37;100.00
7670;BME280;3877;42.562;27.636;2022-07-18T04:25:35;102227.28;;;24.45;100.00
7670;BME280;3877;42.562;27.636;2022-07-18T04:28:03;102225.34;;;24.53;100.00
7670;BME280;3877;42.562;27.636;2022-07-18T04:30:33;102238.41;;;24.50;100.00
7670;BME280;3877;42.562;27.636;2022-07-18T04:33:03;102231.81;;;24.46;100.00
7670;BME280;3877;42.562;27.636;2022-07-18T04:35:32;102233.56;;;24.54;100.00
7670;BME280;3877;42.562;27.636;2022-07-18T04:38:01;102246.28;;;24.57;100.00
7670;BME280;3877;42.562;27.636;2022-07-18T04:40:28;102215.34;;;24.43;100.00
7670;BME280;3877;42.562;27.636;2022-07-18T04:42:55;102229.84;;;24.76;100.00
7670;BME280;3877;42.562;27.636;2022-07-18T04:45:23;102240.72;;;24.90;100.00
7670;BME280;3877;42.562;27.636;2022-07-18T04:47:52;102242.09;;;25.00;100.00
7670;BME280;3877;42.562;27.636;2022-07-18T04:50:20;102199.88;;;24.70;100.00
7670;BME280;3877;42.562;27.636;2022-07-18T04:52:49;102248.81;;;25.07;100.00
7670;BME280;3877;42.562;27.636;2022-07-18T04:55:18;102245.34;;;25.24;100.00
7670;BME280;3877;42.562;27.636;2022-07-18T04:57:45;102233.06;;;25.24;100.00
7670;BME280;3877;42.562;27.636;2022-07-18T05:00:15;102251.13;;;25.28;100.00
7670;BME280;3877;42.562;27.636;2022-07-18T05:02:44;102249.78;;;25.48;100.00
7670;BME280;3877;42.562;27.636;2022-07-18T05:05:14;102238.75;;;25.50;100.00
7670;BME280;3877;42.562;27.636;2022-07-18T05:07:43;102250.56;;;25.45;100.00
7670;BME280;3877;42.562;27.636;2022-07-18T05:10:11;102248.31;;;25.58;100.00
7670;BME280;3877;42.562;27.636;2022-07-18T05:12:41;102252.38;;;25.57;100.00
7670;BME280;3877;42.562;27.636;2022-07-18T05:15:10;102244.91;;;25.79;100.00
7670;BME280;3877;42.562;27.636;2022-07-18T05:17:38;102256.53;;;25.59;100.00
7670;BME280;3877;42.562;27.636;2022-07-18T05:20:07;102271.50;;;25.76;100.00
7670;BME280;3877;42.562;27.636;2022-07-18T05:22:36;102259.94;;;25.68;100.00
7670;BME280;3877;42.562;27.636;2022-07-18T05:25:05;102256.38;;;25.79;100.00
7670;BME280;3877;42.562;27.636;2022-07-18T05:27:33;102271.63;;;25.86;100.00
7670;BME280;3877;42.562;27.636;2022-07-18T05:30:01;102252.22;;;25.76;100.00
7670;BME280;3877;42.562;27.636;2022-07-18T05:32:29;102257.41;;;25.97;100.00
7670;BME280;3877;42.562;27.636;2022-07-18T05:34:56;102258.56;;;26.22;100.00
7670;BME280;3877;42.562;27.636;2022-07-18T05:37:23;102281.53;;;26.22;100.00
7670;BME280;3877;42.562;27.636;2022-07-18T05:39:52;102260.78;;;26.39;100.00
7670;BME280;3877;42.562;27.636;2022-07-18T05:42:20;102255.06;;;26.09;100.00
7670;BME280;3877;42.562;27.636;2022-07-18T05:44:47;102275.00;;;25.92;100.00
7670;BME280;3877;42.562;27.636;2022-07-18T05:47:14;102278.97;;;26.17;100.00
7670;BME280;3877;42.562;27.636;2022-07-18T05:49:41;102281.06;;;26.20;100.00
7670;BME280;3877;42.562;27.636;2022-07-18T05:52:09;102288.66;;;26.02;100.00
7670;BME280;3877;42.562;27.636;2022-07-18T05:54:36;102293.25;;;26.10;100.00
7670;BME280;3877;42.562;27.636;2022-07-18T05:57:05;102287.13;;;26.11;100.00
7670;BME280;3877;42.562;27.636;2022-07-18T05:59:32;102273.94;;;25.74;100.00
7670;BME280;3877;42.562;27.636;2022-07-18T06:02:00;102276.88;;;25.81;100.00
7670;BME280;3877;42.562;27.636;2022-07-18T06:04:27;102280.72;;;25.92;100.00
7670;BME280;3877;42.562;27.636;2022-07-18T06:06:54;102282.47;;;26.00;100.00
7670;BME280;3877;42.562;27.636;2022-07-18T06:09:22;102288.19;;;26.00;100.00
7670;BME280;3877;42.562;27.636;2022-07-18T06:11:49;102273.66;;;26.19;100.00
7670;BME280;3877;42.562;27.636;2022-07-18T06:14:18;102302.03;;;25.91;100.00
7670;BME280;3877;42.562;27.636;2022-07-18T06:16:45;102289.78;;;25.94;100.00
7670;BME280;3877;42.562;27.636;2022-07-18T06:19:13;102287.25;;;25.89;100.00
7670;BME280;3877;42.562;27.636;2022-07-18T06:21:40;102299.81;;;26.10;100.00
7670;BME280;3877;42.562;27.636;2022-07-18T06:24:07;102299.03;;;26.13;100.00
7670;BME280;3877;42.562;27.636;2022-07-18T06:26:34;102295.72;;;26.08;100.00
7670;BME280;3877;42.562;27.636;2022-07-18T06:29:01;102298.09;;;26.36;100.00
7670;BME280;3877;42.562;27.636;2022-07-18T06:31:30;102294.41;;;26.35;100.00
7670;BME280;3877;42.562;27.636;2022-07-18T06:33:57;102289.00;;;26.30;100.00
7670;BME280;3877;42.562;27.636;2022-07-18T06:36:24;102329.00;;;26.12;100.00
7670;BME280;3877;42.562;27.636;2022-07-18T06:38:52;102302.72;;;25.81;100.00
7670;BME280;3877;42.562;27.636;2022-07-18T06:41:19;102311.63;;;26.02;100.00
7670;BME280;3877;42.562;27.636;2022-07-18T06:43:47;102303.16;;;26.12;100.00
7670;BME280;3877;42.562;27.636;2022-07-18T06:46:14;102302.38;;;26.19;100.00
7670;BME280;3877;42.562;27.636;2022-07-18T06:48:43;102298.44;;;26.31;100.00
7670;BME280;3877;42.562;27.636;2022-07-18T06:51:10;102299.09;;;26.17;100.00
7670;BME280;3877;42.562;27.636;2022-07-18T06:53:37;102298.47;;;25.67;100.00
7670;BME280;3877;42.562;27.636;2022-07-18T06:56:05;102286.06;;;25.60;100.00
7670;BME280;3877;42.562;27.636;2022-07-18T06:58:32;102278.72;;;25.62;100.00
7670;BME280;3877;42.562;27.636;2022-07-18T07:00:59;102303.16;;;25.53;100.00
7670;BME280;3877;42.562;27.636;2022-07-18T07:03:26;102302.28;;;25.49;100.00
7670;BME280;3877;42.562;27.636;2022-07-18T07:05:55;102306.53;;;25.58;100.00
7670;BME280;3877;42.562;27.636;2022-07-18T07:08:22;102310.38;;;25.43;100.00
7670;BME280;3877;42.562;27.636;2022-07-18T07:10:49;102317.13;;;25.28;100.00
7670;BME280;3877;42.562;27.636;2022-07-18T07:13:16;102308.75;;;25.42;100.00
7670;BME280;3877;42.562;27.636;2022-07-18T07:15:44;102311.25;;;25.47;100.00
7670;BME280;3877;42.562;27.636;2022-07-18T07:18:11;102292.97;;;25.29;100.00
7670;BME280;3877;42.562;27.636;2022-07-18T07:20:38;102309.28;;;25.25;100.00
7670;BME280;3877;42.562;27.636;2022-07-18T07:23:07;102295.41;;;25.27;100.00
7670;BME280;3877;42.562;27.636;2022-07-18T07:25:35;102317.16;;;25.54;100.00
7670;BME280;3877;42.562;27.636;2022-07-18T07:28:04;102313.16;;;25.62;100.00
7670;BME280;3877;42.562;27.636;2022-07-18T07:30:32;102310.53;;;25.54;100.00
7670;BME280;3877;42.562;27.636;2022-07-18T07:33:01;102315.38;;;25.46;100.00
7670;BME280;3877;42.562;27.636;2022-07-18T07:35:29;102322.31;;;25.45;100.00
7670;BME280;3877;42.562;27.636;2022-07-18T07:37:57;102310.19;;;25.55;100.00
7670;BME280;3877;42.562;27.636;2022-07-18T07:40:28;102315.78;;;25.75;100.00
7670;BME280;3877;42.562;27.636;2022-07-18T07:43:07;102313.63;;;25.98;100.00
7670;BME280;3877;42.562;27.636;2022-07-18T07:45:35;102314.13;;;25.74;100.00
7670;BME280;3877;42.562;27.636;2022-07-18T07:48:03;102282.06;;;25.68;100.00
7670;BME280;3877;42.562;27.636;2022-07-18T07:50:31;102296.47;;;25.72;100.00
7670;BME280;3877;42.562;27.636;2022-07-18T07:52:59;102321.19;;;25.53;100.00
7670;BME280;3877;42.562;27.636;2022-07-18T07:55:28;102332.53;;;25.69;100.00
7670;BME280;3877;42.562;27.636;2022-07-18T07:57:56;102313.41;;;25.54;100.00
7670;BME280;3877;42.562;27.636;2022-07-18T08:00:23;102313.56;;;25.61;100.00
7670;BME280;3877;42.562;27.636;2022-07-18T08:02:52;102310.53;;;25.54;100.00
7670;BME280;3877;42.562;27.636;2022-07-18T08:05:19;102327.75;;;25.54;100.00
7670;BME280;3877;42.562;27.636;2022-07-18T08:07:52;102313.25;;;25.69;100.00
7670;BME280;3877;42.562;27.636;2022-07-18T08:10:20;102317.09;;;25.81;100.00
7670;BME280;3877;42.562;27.636;2022-07-18T08:12:49;102319.75;;;25.66;100.00
7670;BME280;3877;42.562;27.636;2022-07-18T08:15:16;102323.38;;;25.90;100.00
7670;BME280;3877;42.562;27.636;2022-07-18T08:17:43;102316.34;;;25.57;100.00
7670;BME280;3877;42.562;27.636;2022-07-18T08:20:11;102334.53;;;25.65;100.00
7670;BME280;3877;42.562;27.636;2022-07-18T08:22:52;102329.63;;;25.65;100.00
7670;BME280;3877;42.562;27.636;2022-07-18T08:25:19;102327.50;;;25.62;100.00
7670;BME280;3877;42.562;27.636;2022-07-18T08:27:48;102338.75;;;25.75;100.00
7670;BME280;3877;42.562;27.636;2022-07-18T08:30:16;102324.94;;;25.84;100.00
7670;BME280;3877;42.562;27.636;2022-07-18T08:32:43;102327.47;;;25.89;100.00
7670;BME280;3877;42.562;27.636;2022-07-18T08:35:11;102320.06;;;25.88;100.00
7670;BME280;3877;42.562;27.636;2022-07-18T08:37:38;102357.88;;;25.93;100.00
7670;BME280;3877;42.562;27.636;2022-07-18T08:40:07;102334.72;;;25.79;100.00
7670;BME280;3877;42.562;27.636;2022-07-18T08:42:35;102339.59;;;25.75;100.00
7670;BME280;3877;42.562;27.636;2022-07-18T08:45:05;102352.72;;;25.76;100.00
7670;BME280;3877;42.562;27.636;2022-07-18T08:47:33;102345.38;;;25.79;100.00
7670;BME280;3877;42.562;27.636;2022-07-18T08:50:01;102347.94;;;25.87;100.00
7670;BME280;3877;42.562;27.636;2022-07-18T08:52:29;102349.41;;;25.74;100.00
7670;BME280;3877;42.562;27.636;2022-07-18T08:54:56;102349.91;;;25.80;100.00
7670;BME280;3877;42.562;27.636;2022-07-18T08:57:24;102351.88;;;25.76;100.00
7670;BME280;3877;42.562;27.636;2022-07-18T08:59:51;102347.59;;;25.36;100.00
7670;BME280;3877;42.562;27.636;2022-07-18T09:02:24;102355.13;;;25.48;100.00
7670;BME280;3877;42.562;27.636;2022-07-18T09:04:51;102334.41;;;25.58;100.00
7670;BME280;3877;42.562;27.636;2022-07-18T09:07:26;102341.84;;;25.62;100.00
7670;BME280;3877;42.562;27.636;2022-07-18T09:09:57;102355.56;;;25.76;100.00
7670;BME280;3877;42.562;27.636;2022-07-18T09:12:25;102346.94;;;25.73;100.00
7670;BME280;3877;42.562;27.636;2022-07-18T09:14:54;102355.31;;;25.85;100.00
7670;BME280;3877;42.562;27.636;2022-07-18T09:17:24;102364.16;;;25.73;100.00
7670;BME280;3877;42.562;27.636;2022-07-18T09:20:00;102359.34;;;25.80;100.00
7670;BME280;3877;42.562;27.636;2022-07-18T09:22:29;102347.41;;;26.08;100.00
7670;BME280;3877;42.562;27.636;2022-07-18T09:24:59;102351.56;;;26.14;100.00
7670;BME280;3877;42.562;27.636;2022-07-18T09:27:29;102354.88;;;26.16;100.00
7670;BME280;3877;42.562;27.636;2022-07-18T09:30:11;102365.00;;;26.03;100.00
7670;BME280;3877;42.562;27.636;2022-07-18T09:32:44;102345.47;;;25.86;100.00
7670;BME280;3877;42.562;27.636;2022-07-18T09:35:13;102378.81;;;25.94;100.00
7670;BME280;3877;42.562;27.636;2022-07-18T09:37:41;102373.50;;;25.96;100.00
7670;BME280;3877;42.562;27.636;2022-07-18T09:40:20;102363.59;;;26.23;100.00
7670;BME280;3877;42.562;27.636;2022-07-18T09:42:49;102356.75;;;26.31;100.00
7670;BME280;3877;42.562;27.636;2022-07-18T09:45:22;102364.84;;;26.22;100.00
7670;BME280;3877;42.562;27.636;2022-07-18T09:47:52;102378.72;;;26.20;100.00
7670;BME280;3877;42.562;27.636;2022-07-18T09:50:28;102369.34;;;26.23;100.00
7670;BME280;3877;42.562;27.636;2022-07-18T09:53:06;102361.94;;;26.55;100.00
7670;BME280;3877;42.562;27.636;2022-07-18T09:55:34;102363.84;;;26.81;100.00
7670;BME280;3877;42.562;27.636;2022-07-18T09:58:04;102379.00;;;26.75;100.00
7670;BME280;3877;42.562;27.636;2022-07-18T10:00:33;102366.53;;;26.27;100.00
7670;BME280;3877;42.562;27.636;2022-07-18T10:03:04;102372.91;;;26.13;100.00
7670;BME280;3877;42.562;27.636;2022-07-18T10:05:33;102368.72;;;26.07;100.00
7670;BME280;3877;42.562;27.636;2022-07-18T10:08:04;102363.59;;;26.23;100.00
7670;BME280;3877;42.562;27.636;2022-07-18T10:10:31;102362.88;;;26.00;100.00
7670;BME280;3877;42.562;27.636;2022-07-18T10:13:00;102366.88;;;25.92;100.00
7670;BME280;3877;42.562;27.636;2022-07-18T10:15:29;102355.56;;;26.06;100.00
7670;BME280;3877;42.562;27.636;2022-07-18T10:17:58;102362.59;;;26.08;100.00
7670;BME280;3877;42.562;27.636;2022-07-18T10:20:30;102372.53;;;25.85;100.00
7670;BME280;3877;42.562;27.636;2022-07-18T10:23:01;102251.25;;;25.35;100.00
7670;BME280;3877;42.562;27.636;2022-07-18T10:25:29;102361.16;;;25.95;100.00
7670;BME280;3877;42.562;27.636;2022-07-18T10:28:06;102363.59;;;25.90;100.00
7670;BME280;3877;42.562;27.636;2022-07-18T10:30:37;102384.50;;;25.60;100.00
7670;BME280;3877;42.562;27.636;2022-07-18T10:33:42;102373.50;;;25.43;100.00
7670;BME280;3877;42.562;27.636;2022-07-18T10:36:15;102370.09;;;25.34;100.00
7670;BME280;3877;42.562;27.636;2022-07-18T10:39:05;102369.91;;;25.23;100.00
7670;BME280;3877;42.562;27.636;2022-07-18T10:41:33;102374.84;;;25.23;100.00
7670;BME280;3877;42.562;27.636;2022-07-18T10:44:00;102369.56;;;25.51;100.00
7670;BME280;3877;42.562;27.636;2022-07-18T10:47:06;102364.09;;;25.69;100.00
7670;BME280;3877;42.562;27.636;2022-07-18T10:50:09;102357.53;;;25.68;100.00
7670;BME280;3877;42.562;27.636;2022-07-18T10:52:57;102367.13;;;25.53;100.00
7670;BME280;3877;42.562;27.636;2022-07-18T10:55:31;102366.03;;;25.35;100.00
7670;BME280;3877;42.562;27.636;2022-07-18T10:58:19;102377.97;;;25.63;100.00
7670;BME280;3877;42.562;27.636;2022-07-18T11:00:50;102368.16;;;25.64;100.00
7670;BME280;3877;42.562;27.636;2022-07-18T11:03:26;102370.50;;;25.59;100.00
7670;BME280;3877;42.562;27.636;2022-07-18T11:05:54;102362.44;;;25.68;100.00
7670;BME280;3877;42.562;27.636;2022-07-18T11:08:23;102355.53;;;26.02;100.00
7670;BME280;3877;42.562;27.636;2022-07-18T11:11:11;102347.38;;;25.75;100.00
7670;BME280;3877;42.562;27.636;2022-07-18T11:13:45;102356.84;;;25.79;100.00
7670;BME280;3877;42.562;27.636;2022-07-18T11:16:18;102363.28;;;25.68;100.00
7670;BME280;3877;42.562;27.636;2022-07-18T11:21:59;102372.44;;;25.78;100.00
7670;BME280;3877;42.562;27.636;2022-07-18T11:24:28;102354.91;;;25.56;100.00
7670;BME280;3877;42.562;27.636;2022-07-18T11:26:55;102354.31;;;25.74;100.00
7670;BME280;3877;42.562;27.636;2022-07-18T11:29:22;102350.50;;;25.40;100.00
7670;BME280;3877;42.562;27.636;2022-07-18T11:31:52;102356.69;;;25.68;100.00
7670;BME280;3877;42.562;27.636;2022-07-18T11:34:20;102349.31;;;25.67;100.00
7670;BME280;3877;42.562;27.636;2022-07-18T11:36:48;102359.03;;;25.59;100.00
7670;BME280;3877;42.562;27.636;2022-07-18T11:39:30;102357.19;;;25.47;100.00
7670;BME280;3877;42.562;27.636;2022-07-18T11:41:57;102347.34;;;25.48;100.00
7670;BME280;3877;42.562;27.636;2022-07-18T11:44:26;102345.50;;;25.59;100.00
7670;BME280;3877;42.562;27.636;2022-07-18T11:47:11;102344.81;;;25.66;100.00
7670;BME280;3877;42.562;27.636;2022-07-18T11:49:39;102340.50;;;25.83;100.00
7670;BME280;3877;42.562;27.636;2022-07-18T11:52:07;102340.47;;;25.79;100.00
7670;BME280;3877;42.562;27.636;2022-07-18T11:54:36;102327.88;;;25.91;100.00
7670;BME280;3877;42.562;27.636;2022-07-18T11:57:04;102332.41;;;25.92;100.00
7670;BME280;3877;42.562;27.636;2022-07-18T11:59:35;102320.75;;;25.78;100.00
7670;BME280;3877;42.562;27.636;2022-07-18T12:02:03;102338.69;;;25.71;100.00
7670;BME280;3877;42.562;27.636;2022-07-18T12:04:31;102336.03;;;25.55;100.00
7670;BME280;3877;42.562;27.636;2022-07-18T12:07:18;102327.59;;;25.43;100.00
7670;BME280;3877;42.562;27.636;2022-07-18T12:09:48;102315.69;;;25.67;100.00
7670;BME280;3877;42.562;27.636;2022-07-18T12:12:20;102324.63;;;25.62;100.00
7670;BME280;3877;42.562;27.636;2022-07-18T12:14:55;102319.44;;;25.45;100.00
7670;BME280;3877;42.562;27.636;2022-07-18T12:17:23;102316.91;;;25.40;100.00
7670;BME280;3877;42.562;27.636;2022-07-18T12:19:50;102328.72;;;25.61;100.00
7670;BME280;3877;42.562;27.636;2022-07-18T12:22:17;102323.03;;;25.65;100.00
7670;BME280;3877;42.562;27.636;2022-07-18T12:24:52;102315.78;;;25.75;100.00
7670;BME280;3877;42.562;27.636;2022-07-18T12:27:22;102329.28;;;25.71;100.00
7670;BME280;3877;42.562;27.636;2022-07-18T12:30:07;102325.38;;;25.56;100.00
7670;BME280;3877;42.562;27.636;2022-07-18T12:32:47;102314.31;;;25.58;100.00
7670;BME280;3877;42.562;27.636;2022-07-18T12:35:18;102319.22;;;25.31;100.00
7670;BME280;3877;42.562;27.636;2022-07-18T12:37:53;102311.88;;;25.34;100.00
7670;BME280;3877;42.562;27.636;2022-07-18T12:40:23;102324.31;;;25.41;100.00
7670;BME280;3877;42.562;27.636;2022-07-18T12:43:02;102321.81;;;25.40;100.00
7670;BME280;3877;42.562;27.636;2022-07-18T12:45:30;102325.47;;;25.37;100.00
7670;BME280;3877;42.562;27.636;2022-07-18T12:47:57;102327.59;;;25.43;100.00
7670;BME280;3877;42.562;27.636;2022-07-18T12:50:24;102208.69;;;24.84;100.00
7670;BME280;3877;42.562;27.636;2022-07-18T12:52:52;102319.13;;;25.50;100.00
7670;BME280;3877;42.562;27.636;2022-07-18T12:55:19;102318.34;;;25.27;100.00
7670;BME280;3877;42.562;27.636;2022-07-18T12:57:49;102316.88;;;25.37;100.00
7670;BME280;3877;42.562;27.636;2022-07-18T13:00:17;102318.63;;;25.45;100.00
7670;BME280;3877;42.562;27.636;2022-07-18T13:02:44;102315.38;;;25.46;100.00
7670;BME280;3877;42.562;27.636;2022-07-18T13:05:13;102320.22;;;25.42;100.00